Terminal Aerodrome Forecast
Issued by NWS Newport/Morehead City, NC

Home | Current Version | Previous Version | Graphics & Text | Print | Product List | Glossary On
Versions: 1 2 3 4 5 6 7 8 9 10 11 12 13 14 15 16 17 18 19 20 21
979
FTUS42 KMHX 070705 AAA
TAFEWN
TAF AMD
KEWN 070705Z 0707/0806 30009KT P6SM SCT008 BKN010
      TEMPO 0707/0710 OVC009
     FM071200 31006KT P6SM SCT009 BKN030
     FM071500 33006KT P6SM SCT030
     FM072300 VRB03KT P6SM SCT030=

USA.gov is the U.S. government's official web portal to all federal, state and local government web resources and services.